Time;durP1;ratioP1;P1;durP2;ratioP2;P2;SDS_P1;SDS_P2;PMS_P1;PMS_P2;Temp;Humidity;BMP_temperature;BMP_pressure;BME280_temperature;BME280_humidity;BME280_pressure;Samples;Min_cycle;Max_cycle;Signal;HPM_P1;HPM_P2
2023/12/25 00:02:25;;;;;;;1999.90;999.90;;;8.80;69.00;;;;;;5044439;28;20399;-83
2023/12/25 00:04:51;;;;;;;1999.90;999.90;;;8.80;69.10;;;;;;5045332;28;20025;-81
2023/12/25 00:07:17;;;;;;;1999.90;999.90;;;8.60;69.20;;;;;;5045098;28;20051;-84
2023/12/25 00:09:44;;;;;;;1999.90;999.90;;;8.80;68.70;;;;;;5044762;28;20033;-80
2023/12/25 00:12:09;;;;;;;1999.90;999.90;;;8.70;68.90;;;;;;5045198;28;20064;-82
2023/12/25 00:14:36;;;;;;;1999.90;999.90;;;8.70;68.10;;;;;;5047581;28;20483;-85
2023/12/25 00:17:03;;;;;;;1999.90;999.90;;;8.70;68.60;;;;;;5029863;28;20040;-86
2023/12/25 00:19:29;;;;;;;1999.90;999.90;;;8.50;68.60;;;;;;5043413;28;20047;-86
2023/12/25 00:21:58;;;;;;;1999.90;999.90;;;8.50;68.90;;;;;;5044437;28;20089;-84
2023/12/25 00:24:24;;;;;;;1999.90;999.90;;;8.60;68.20;;;;;;5029069;28;20182;-85
2023/12/25 00:26:49;;;;;;;1999.90;999.90;;;8.60;68.00;;;;;;5045553;28;20411;-84
2023/12/25 00:29:15;;;;;;;1999.90;999.90;;;8.60;67.90;;;;;;5047818;28;20036;-85
2023/12/25 00:31:41;;;;;;;1999.90;999.90;;;8.60;67.30;;;;;;5047114;28;20048;-84
2023/12/25 00:34:07;;;;;;;1999.90;999.90;;;8.60;67.50;;;;;;5046613;28;20159;-84
2023/12/25 00:36:33;;;;;;;1999.90;999.90;;;8.70;66.50;;;;;;5047706;28;20398;-85
2023/12/25 00:39:02;;;;;;;1999.90;999.90;;;8.60;67.30;;;;;;5045751;28;20047;-81
2023/12/25 00:41:30;;;;;;;1999.90;999.90;;;8.40;67.70;;;;;;5045933;28;20029;-82
2023/12/25 00:43:59;;;;;;;1999.90;999.90;;;8.50;67.30;;;;;;5029538;28;20036;-83
2023/12/25 00:46:25;;;;;;;1999.90;999.90;;;8.40;67.30;;;;;;5055600;28;20037;-86
2023/12/25 00:48:51;;;;;;;1999.90;999.90;;;8.60;66.40;;;;;;5043307;28;20398;-85
2023/12/25 00:51:17;;;;;;;1999.90;999.90;;;8.50;66.60;;;;;;5045625;28;20422;-83
2023/12/25 00:53:42;;;;;;;1999.90;999.90;;;8.60;66.80;;;;;;5043544;28;20037;-86
2023/12/25 00:56:08;;;;;;;1999.90;999.90;;;8.40;67.30;;;;;;5046373;28;20566;-87
2023/12/25 00:58:34;;;;;;;1999.90;999.90;;;8.30;67.90;;;;;;5044919;28;20043;-82
2023/12/25 01:01:00;;;;;;;1999.90;999.90;;;8.20;67.90;;;;;;5046909;28;20033;-85
2023/12/25 01:03:25;;;;;;;1999.90;999.90;;;8.20;68.00;;;;;;5028803;28;20040;-81
2023/12/25 01:05:52;;;;;;;1999.90;999.90;;;8.30;67.70;;;;;;5045594;28;20082;-85
2023/12/25 01:08:18;;;;;;;1999.90;999.90;;;8.30;67.70;;;;;;5042544;28;20028;-85
2023/12/25 01:10:45;;;;;;;1999.90;999.90;;;8.20;68.40;;;;;;5044839;28;20043;-87
2023/12/25 01:13:11;;;;;;;1999.90;999.90;;;8.20;68.30;;;;;;5022476;28;20039;-84
2023/12/25 01:15:36;;;;;;;1999.90;999.90;;;8.10;68.40;;;;;;5045802;28;20038;-82
2023/12/25 01:18:03;;;;;;;1999.90;999.90;;;8.10;68.40;;;;;;5041780;28;22003;-84
2023/12/25 01:20:28;;;;;;;1999.90;999.90;;;8.00;68.70;;;;;;5043694;28;20056;-85
2023/12/25 01:22:54;;;;;;;1999.90;999.90;;;8.10;68.70;;;;;;5043811;28;20053;-85
2023/12/25 01:25:20;;;;;;;1999.90;999.90;;;8.10;68.70;;;;;;5045397;28;20138;-86
2023/12/25 01:27:47;;;;;;;1999.90;999.90;;;8.10;69.40;;;;;;5046260;28;20566;-85
2023/12/25 01:30:13;;;;;;;1999.90;999.90;;;8.20;67.90;;;;;;5043020;28;20017;-82
2023/12/25 01:32:39;;;;;;;1999.90;999.90;;;8.30;67.60;;;;;;5058577;28;20055;-86
2023/12/25 01:35:05;;;;;;;1999.90;999.90;;;8.30;67.10;;;;;;5044151;28;20425;-85
2023/12/25 01:37:32;;;;;;;1999.90;999.90;;;8.30;67.10;;;;;;5044333;28;20025;-83
2023/12/25 01:39:58;;;;;;;1999.90;999.90;;;8.30;67.00;;;;;;5043218;28;20112;-84
2023/12/25 01:42:23;;;;;;;1999.90;999.90;;;8.20;67.30;;;;;;5044411;28;20128;-83
2023/12/25 01:44:50;;;;;;;1999.90;999.90;;;8.30;67.10;;;;;;5037603;28;20039;-79
2023/12/25 01:47:19;;;;;;;1999.90;999.90;;;8.20;67.10;;;;;;5045452;28;20056;-82
2023/12/25 01:49:45;;;;;;;1999.90;999.90;;;8.10;67.50;;;;;;5045475;28;20075;-84
2023/12/25 01:52:12;;;;;;;1999.90;999.90;;;8.00;68.30;;;;;;5046892;28;20060;-83
2023/12/25 01:54:39;;;;;;;1999.90;999.90;;;8.00;68.10;;;;;;5042723;28;20037;-84
2023/12/25 01:57:05;;;;;;;1999.90;999.90;;;8.10;67.50;;;;;;5046849;28;20036;-83
2023/12/25 01:59:31;;;;;;;1999.90;999.90;;;8.10;67.80;;;;;;5032462;28;20037;-82
2023/12/25 02:01:58;;;;;;;1999.90;999.90;;;8.00;68.00;;;;;;5049121;28;21400;-83
2023/12/25 02:04:26;;;;;;;1999.90;999.90;;;8.10;67.50;;;;;;5049151;28;20147;-81
2023/12/25 02:06:54;;;;;;;1999.90;999.90;;;8.10;67.30;;;;;;5061907;28;20142;-84
2023/12/25 02:09:20;;;;;;;1999.90;999.90;;;8.10;67.10;;;;;;5045830;28;20124;-83
2023/12/25 02:11:46;;;;;;;1999.90;999.90;;;8.00;67.00;;;;;;5047257;28;20115;-83
2023/12/25 02:14:14;;;;;;;1999.90;999.90;;;8.10;66.40;;;;;;5045334;28;20491;-84
2023/12/25 02:16:42;;;;;;;1999.90;999.90;;;8.20;66.30;;;;;;5044112;28;20139;-83
2023/12/25 02:19:31;;;;;;;1999.90;999.90;;;8.20;66.00;;;;;;5048751;28;20025;-82
2023/12/25 02:21:59;;;;;;;1999.90;999.90;;;8.20;65.40;;;;;;5047104;28;20024;-85
2023/12/25 02:24:30;;;;;;;1999.90;999.90;;;8.30;65.10;;;;;;5045373;28;20121;-82
2023/12/25 02:26:56;;;;;;;1999.90;999.90;;;8.20;65.00;;;;;;5047275;28;20021;-84
2023/12/25 02:29:22;;;;;;;1999.90;999.90;;;8.20;65.50;;;;;;5048961;28;20048;-86
2023/12/25 02:31:48;;;;;;;1999.90;999.90;;;8.20;65.00;;;;;;5048690;28;20411;-85
2023/12/25 02:34:14;;;;;;;1999.90;999.90;;;8.20;64.20;;;;;;5048167;28;20501;-85
2023/12/25 02:36:40;;;;;;;1999.90;999.90;;;8.20;64.40;;;;;;5050644;28;20145;-86
2023/12/25 02:39:06;;;;;;;1999.90;999.90;;;8.20;63.40;;;;;;5045931;28;20333;-83
2023/12/25 02:41:32;;;;;;;1999.90;999.90;;;8.30;62.60;;;;;;5046583;28;20458;-86
2023/12/25 02:43:57;;;;;;;1999.90;999.90;;;8.20;63.00;;;;;;5031226;28;20068;-87
2023/12/25 02:46:23;;;;;;;1999.90;999.90;;;8.30;61.50;;;;;;5048253;28;20032;-86
2023/12/25 02:48:48;;;;;;;1999.90;999.90;;;8.40;61.20;;;;;;5045838;28;20040;-83
2023/12/25 02:51:14;;;;;;;1999.90;999.90;;;8.40;60.50;;;;;;5058542;28;20057;-86
2023/12/25 02:53:40;;;;;;;1999.90;999.90;;;8.40;60.30;;;;;;5048856;28;20036;-85
2023/12/25 02:56:05;;;;;;;1999.90;999.90;;;8.50;58.80;;;;;;5045110;28;20044;-83
2023/12/25 02:58:31;;;;;;;1999.90;999.90;;;8.50;58.60;;;;;;5045028;28;20056;-84
2023/12/25 03:00:57;;;;;;;1999.90;999.90;;;8.50;58.50;;;;;;5046715;28;20402;-85
2023/12/25 03:03:22;;;;;;;1999.90;999.90;;;8.40;58.90;;;;;;5044584;28;20387;-84
2023/12/25 03:05:48;;;;;;;1999.90;999.90;;;8.30;59.40;;;;;;5045566;28;20535;-83
2023/12/25 03:08:14;;;;;;;1999.90;999.90;;;8.40;58.10;;;;;;5047117;28;20624;-84
2023/12/25 03:10:39;;;;;;;1999.90;999.90;;;8.40;58.50;;;;;;5046029;28;20507;-83
2023/12/25 03:13:05;;;;;;;1999.90;999.90;;;8.30;58.30;;;;;;5044073;28;20037;-88
2023/12/25 03:15:32;;;;;;;1999.90;999.90;;;8.20;59.00;;;;;;5046235;28;20377;-85
2023/12/25 03:17:58;;;;;;;1999.90;999.90;;;8.20;58.70;;;;;;5048394;28;20032;-81
2023/12/25 03:20:23;;;;;;;1999.90;999.90;;;8.20;58.80;;;;;;5024479;28;20029;-84
2023/12/25 03:22:49;;;;;;;1999.90;999.90;;;8.30;58.20;;;;;;5042461;28;20033;-85
2023/12/25 03:25:15;;;;;;;1999.90;999.90;;;8.30;57.90;;;;;;5044563;28;20025;-85
2023/12/25 03:27:40;;;;;;;1999.90;999.90;;;8.20;58.30;;;;;;5043919;28;20029;-85
2023/12/25 03:30:06;;;;;;;1999.90;999.90;;;8.20;58.40;;;;;;5042726;28;20047;-85
2023/12/25 03:32:34;;;;;;;1999.90;999.90;;;8.10;58.90;;;;;;5047649;28;20032;-84
2023/12/25 03:35:00;;;;;;;1999.90;999.90;;;8.20;58.30;;;;;;5044903;28;20676;-85
2023/12/25 03:37:26;;;;;;;1999.90;999.90;;;8.30;57.40;;;;;;5047136;28;20048;-82
2023/12/25 03:39:52;;;;;;;1999.90;999.90;;;8.20;57.20;;;;;;5043753;28;20506;-86
2023/12/25 03:42:20;;;;;;;1999.90;999.90;;;8.20;58.10;;;;;;5045479;28;20036;-84
2023/12/25 03:44:47;;;;;;;1999.90;999.90;;;8.20;56.90;;;;;;5043299;28;20068;-83
2023/12/25 03:47:13;;;;;;;1999.90;999.90;;;8.20;56.40;;;;;;5025220;28;20574;-85
2023/12/25 03:49:38;;;;;;;1999.90;999.90;;;8.40;56.20;;;;;;5004727;28;1163661;-85
2023/12/25 03:52:04;;;;;;;1999.90;999.90;;;8.20;56.30;;;;;;5046935;28;20102;-82
2023/12/25 03:54:30;;;;;;;1999.90;999.90;;;8.10;56.60;;;;;;5045104;28;20037;-85
2023/12/25 03:56:57;;;;;;;1999.90;999.90;;;8.10;57.00;;;;;;5044882;28;20037;-84
2023/12/25 03:59:23;;;;;;;1999.90;999.90;;;8.10;57.10;;;;;;5027599;28;20036;-83
2023/12/25 04:01:49;;;;;;;1999.90;999.90;;;7.90;58.00;;;;;;5045518;28;20742;-85
2023/12/25 04:04:15;;;;;;;1999.90;999.90;;;7.80;58.30;;;;;;5044801;28;20048;-85
2023/12/25 04:06:42;;;;;;;1999.90;999.90;;;7.90;57.80;;;;;;5048498;28;20025;-82
2023/12/25 04:09:07;;;;;;;1999.90;999.90;;;7.80;58.90;;;;;;5045894;28;20095;-83
2023/12/25 04:11:33;;;;;;;1999.90;999.90;;;7.60;60.20;;;;;;5044633;28;20096;-83
2023/12/25 04:14:00;;;;;;;1999.90;999.90;;;7.60;61.90;;;;;;5044773;28;20033;-85
2023/12/25 04:16:28;;;;;;;1999.90;999.90;;;7.40;63.30;;;;;;5042899;28;20119;-85
2023/12/25 04:18:54;;;;;;;1999.90;999.90;;;7.20;64.20;;;;;;5046555;28;20372;-85
2023/12/25 04:21:25;;;;;;;1999.90;999.90;;;7.00;65.50;;;;;;5043920;28;20036;-82
2023/12/25 04:23:55;;;;;;;1999.90;999.90;;;7.00;66.50;;;;;;5045804;28;20441;-84
2023/12/25 04:26:21;;;;;;;1999.90;999.90;;;6.80;68.20;;;;;;5046431;28;20074;-84
2023/12/25 04:28:48;;;;;;;1999.90;999.90;;;6.70;68.70;;;;;;5045300;28;20041;-83
2023/12/25 04:31:15;;;;;;;1999.90;999.90;;;6.70;68.90;;;;;;5043614;28;20487;-84
2023/12/25 04:33:41;;;;;;;1999.90;999.90;;;6.60;69.70;;;;;;5044504;28;20136;-85
2023/12/25 04:36:07;;;;;;;1999.90;999.90;;;6.50;69.60;;;;;;5047516;28;20112;-86
2023/12/25 04:38:33;;;;;;;1999.90;999.90;;;6.40;70.50;;;;;;5042997;28;20593;-86
2023/12/25 04:41:02;;;;;;;1999.90;999.90;;;6.50;70.00;;;;;;5042722;28;20041;-85
2023/12/25 04:43:28;;;;;;;1999.90;999.90;;;6.30;70.80;;;;;;5073238;28;20060;-85
2023/12/25 04:45:53;;;;;;;1999.90;999.90;;;6.30;70.80;;;;;;5045470;28;20065;-85
2023/12/25 04:48:19;;;;;;;1999.90;999.90;;;6.10;71.20;;;;;;5026895;28;20108;-85
2023/12/25 04:50:45;;;;;;;1999.90;999.90;;;6.00;72.00;;;;;;5044646;28;20049;-87
2023/12/25 04:53:11;;;;;;;1999.90;999.90;;;6.00;72.20;;;;;;5046976;28;20043;-85
2023/12/25 04:55:39;;;;;;;1999.90;999.90;;;6.00;72.20;;;;;;5040540;28;20041;-85
2023/12/25 04:58:05;;;;;;;1999.90;999.90;;;6.20;71.50;;;;;;5043598;28;20090;-86
2023/12/25 05:00:32;;;;;;;1999.90;999.90;;;6.30;70.90;;;;;;5042670;28;20028;-86
2023/12/25 05:02:58;;;;;;;1999.90;999.90;;;6.20;71.40;;;;;;5047040;28;20029;-87
2023/12/25 05:05:25;;;;;;;1999.90;999.90;;;6.10;71.90;;;;;;5044860;28;20025;-85
2023/12/25 05:07:52;;;;;;;1999.90;999.90;;;6.00;72.70;;;;;;5060017;28;20391;-85
2023/12/25 05:10:19;;;;;;;1999.90;999.90;;;6.00;72.70;;;;;;5042467;28;20111;-87
2023/12/25 05:12:45;;;;;;;1999.90;999.90;;;5.90;72.90;;;;;;5045051;28;20032;-85
2023/12/25 05:15:10;;;;;;;1999.90;999.90;;;5.90;72.50;;;;;;5042896;28;20025;-85
2023/12/25 05:17:37;;;;;;;1999.90;999.90;;;5.90;72.20;;;;;;5046876;28;20473;-86
2023/12/25 05:20:04;;;;;;;1999.90;999.90;;;6.00;72.30;;;;;;5042307;28;20021;-87
2023/12/25 05:22:30;;;;;;;1999.90;999.90;;;6.00;72.40;;;;;;5042996;28;21113;-84
2023/12/25 05:24:56;;;;;;;1999.90;999.90;;;6.00;72.10;;;;;;5041462;28;20033;-85
2023/12/25 05:27:21;;;;;;;1999.90;999.90;;;5.90;72.90;;;;;;5028666;28;20052;-85
2023/12/25 05:29:51;;;;;;;1999.90;999.90;;;5.90;72.90;;;;;;5040249;28;20028;-86
2023/12/25 05:32:17;;;;;;;1999.90;999.90;;;5.90;73.10;;;;;;5027638;28;20036;-84
2023/12/25 05:34:43;;;;;;;1999.90;999.90;;;5.90;72.80;;;;;;5046422;28;20094;-85
2023/12/25 05:37:09;;;;;;;1999.90;999.90;;;5.90;73.10;;;;;;5043764;28;20041;-85
2023/12/25 05:39:36;;;;;;;1999.90;999.90;;;5.90;72.70;;;;;;5046378;28;20492;-82
2023/12/25 05:42:02;;;;;;;1999.90;999.90;;;5.90;72.60;;;;;;5043955;28;21224;-85
2023/12/25 05:44:29;;;;;;;1999.90;999.90;;;5.90;72.80;;;;;;5043852;28;20044;-84
2023/12/25 05:46:55;;;;;;;1999.90;999.90;;;5.80;73.10;;;;;;5044886;28;20017;-82
2023/12/25 05:49:21;;;;;;;1999.90;999.90;;;5.90;73.20;;;;;;5044752;28;20076;-85
2023/12/25 05:51:48;;;;;;;1999.90;999.90;;;6.00;72.50;;;;;;5040561;28;20777;-83
2023/12/25 05:54:13;;;;;;;1999.90;999.90;;;6.00;72.40;;;;;;5042799;28;20033;-87
2023/12/25 05:56:39;;;;;;;1999.90;999.90;;;6.10;72.20;;;;;;5044227;28;20445;-85
2023/12/25 05:59:05;;;;;;;1999.90;999.90;;;6.10;72.30;;;;;;5041011;28;20398;-84
2023/12/25 06:01:30;;;;;;;1999.90;999.90;;;5.90;72.80;;;;;;5043611;28;20436;-84
2023/12/25 06:03:58;;;;;;;1999.90;999.90;;;6.00;72.60;;;;;;5026387;28;20519;-84
2023/12/25 06:06:25;;;;;;;1999.90;999.90;;;6.00;73.10;;;;;;5039896;28;20029;-86
2023/12/25 06:08:51;;;;;;;1999.90;999.90;;;6.00;73.20;;;;;;5042784;28;20036;-88
2023/12/25 06:11:16;;;;;;;1999.90;999.90;;;6.00;73.30;;;;;;5040546;28;20032;-85
2023/12/25 06:13:42;;;;;;;1999.90;999.90;;;6.00;73.50;;;;;;5025177;28;20034;-85
2023/12/25 06:16:08;;;;;;;1999.90;999.90;;;5.90;73.30;;;;;;5041272;28;20068;-83
2023/12/25 06:18:33;;;;;;;1999.90;999.90;;;6.00;72.80;;;;;;5041988;28;20545;-88
2023/12/25 06:20:59;;;;;;;1999.90;999.90;;;6.10;72.00;;;;;;5041958;28;20216;-86
2023/12/25 06:23:24;;;;;;;1999.90;999.90;;;6.20;71.60;;;;;;5043520;28;20110;-83
2023/12/25 06:25:50;;;;;;;1999.90;999.90;;;6.10;71.70;;;;;;5041232;28;20025;-82
2023/12/25 06:28:16;;;;;;;1999.90;999.90;;;6.10;72.00;;;;;;5042993;28;20033;-84
2023/12/25 06:30:43;;;;;;;1999.90;999.90;;;6.20;71.20;;;;;;5043360;28;20083;-84
2023/12/25 06:33:09;;;;;;;1999.90;999.90;;;6.30;70.80;;;;;;5041706;28;20040;-84
2023/12/25 06:35:35;;;;;;;1999.90;999.90;;;6.20;71.40;;;;;;5042756;28;20029;-85
2023/12/25 06:38:00;;;;;;;1999.90;999.90;;;6.00;71.90;;;;;;5037814;28;20037;-86
2023/12/25 06:40:26;;;;;;;1999.90;999.90;;;6.40;70.10;;;;;;5040016;28;20025;-84
2023/12/25 06:42:52;;;;;;;1999.90;999.90;;;6.40;70.00;;;;;;5054058;28;20514;-84
2023/12/25 06:45:19;;;;;;;1999.90;999.90;;;6.30;70.50;;;;;;5047625;28;20029;-83
2023/12/25 06:47:46;;;;;;;1999.90;999.90;;;6.30;70.60;;;;;;5043095;28;20025;-83
2023/12/25 06:50:12;;;;;;;1999.90;999.90;;;6.40;69.30;;;;;;5044474;28;20045;-84
2023/12/25 06:52:40;;;;;;;1999.90;999.90;;;6.50;68.50;;;;;;5047471;28;20044;-85
2023/12/25 06:55:08;;;;;;;1999.90;999.90;;;6.50;68.00;;;;;;5043898;28;20041;-85
2023/12/25 06:57:34;;;;;;;1999.90;999.90;;;6.30;69.00;;;;;;5042144;28;20043;-85
2023/12/25 07:00:00;;;;;;;1999.90;999.90;;;6.20;69.10;;;;;;5042579;28;20045;-83
2023/12/25 07:02:25;;;;;;;1999.90;999.90;;;6.30;68.50;;;;;;5045801;28;20140;-84
2023/12/25 07:04:53;;;;;;;1999.90;999.90;;;6.40;67.40;;;;;;5046232;28;20029;-83
2023/12/25 07:07:19;;;;;;;1999.90;999.90;;;6.50;67.40;;;;;;5055459;28;20033;-84
2023/12/25 07:09:45;;;;;;;1999.90;999.90;;;6.50;67.10;;;;;;5029218;28;20032;-86
2023/12/25 07:12:10;;;;;;;1999.90;999.90;;;6.60;65.80;;;;;;5043219;28;20556;-85
2023/12/25 07:14:38;;;;;;;1999.90;999.90;;;6.60;66.30;;;;;;5045757;28;20029;-84
2023/12/25 07:17:06;;;;;;;1999.90;999.90;;;6.50;66.70;;;;;;5042781;28;20037;-83
2023/12/25 07:19:32;;;;;;;1999.90;999.90;;;6.50;66.60;;;;;;5041942;28;20029;-81
2023/12/25 07:21:58;;;;;;;1999.90;999.90;;;6.40;67.30;;;;;;5042303;28;20495;-84
2023/12/25 07:24:24;;;;;;;1999.90;999.90;;;6.40;68.30;;;;;;5046730;28;20449;-86
2023/12/25 07:26:50;;;;;;;1999.90;999.90;;;6.40;67.30;;;;;;5048441;28;20028;-86
2023/12/25 07:29:16;;;;;;;1999.90;999.90;;;6.30;67.70;;;;;;5044231;28;20041;-86
2023/12/25 07:31:42;;;;;;;1999.90;999.90;;;6.30;67.80;;;;;;5044161;28;20083;-85
2023/12/25 07:34:08;;;;;;;1999.90;999.90;;;6.40;66.70;;;;;;5046370;28;20037;-83
2023/12/25 07:36:33;;;;;;;1999.90;999.90;;;6.50;66.10;;;;;;5046921;28;20067;-83
2023/12/25 07:38:59;;;;;;;1999.90;999.90;;;6.30;66.40;;;;;;5044108;28;20127;-84
2023/12/25 07:41:24;;;;;;;1999.90;999.90;;;6.30;66.30;;;;;;5042827;28;20036;-85
2023/12/25 07:43:50;;;;;;;1999.90;999.90;;;6.50;66.40;;;;;;5046500;28;20132;-84
2023/12/25 07:46:16;;;;;;;1999.90;999.90;;;6.50;65.60;;;;;;5024650;28;20029;-85
2023/12/25 07:48:41;;;;;;;1999.90;999.90;;;6.60;65.90;;;;;;5044230;28;20029;-86
2023/12/25 07:51:07;;;;;;;1999.90;999.90;;;6.70;64.70;;;;;;5043320;28;20136;-84
2023/12/25 07:53:33;;;;;;;1999.90;999.90;;;6.60;65.80;;;;;;5028850;28;20112;-81
2023/12/25 07:55:58;;;;;;;1999.90;999.90;;;6.70;65.20;;;;;;5045591;28;20037;-78
2023/12/25 07:58:24;;;;;;;1999.90;999.90;;;6.70;64.40;;;;;;5027770;28;20040;-80
2023/12/25 08:00:50;;;;;;;1999.90;999.90;;;6.70;64.90;;;;;;5044047;28;20025;-78
2023/12/25 08:03:15;;;;;;;1999.90;999.90;;;6.70;65.10;;;;;;5046057;28;20028;-81
2023/12/25 08:05:41;;;;;;;1999.90;999.90;;;6.70;64.30;;;;;;5043731;28;20040;-82
2023/12/25 08:08:07;;;;;;;1999.90;999.90;;;6.70;64.30;;;;;;5028118;28;20035;-83
2023/12/25 08:10:34;;;;;;;1999.90;999.90;;;6.70;64.80;;;;;;5045015;28;20049;-83
2023/12/25 08:13:01;;;;;;;1999.90;999.90;;;6.80;63.50;;;;;;5043385;28;20031;-83
2023/12/25 08:15:30;;;;;;;1999.90;999.90;;;6.70;65.80;;;;;;5044099;28;20606;-80
2023/12/25 08:17:56;;;;;;;1999.90;999.90;;;6.70;63.90;;;;;;5076985;28;20031;-82
2023/12/25 08:20:22;;;;;;;1999.90;999.90;;;6.70;64.50;;;;;;5046193;28;20037;-81
2023/12/25 08:22:48;;;;;;;1999.90;999.90;;;6.80;64.60;;;;;;5044254;28;20103;-80
2023/12/25 08:25:17;;;;;;;1999.90;999.90;;;6.80;63.80;;;;;;5030091;28;20474;-81
2023/12/25 08:27:44;;;;;;;1999.90;999.90;;;6.80;63.10;;;;;;5040140;28;21023;-80
2023/12/25 08:30:11;;;;;;;1999.90;999.90;;;6.90;63.00;;;;;;5043227;28;20029;-80
2023/12/25 08:32:37;;;;;;;1999.90;999.90;;;7.00;61.20;;;;;;5045008;28;20068;-82
2023/12/25 08:35:03;;;;;;;1999.90;999.90;;;7.00;61.00;;;;;;5045267;28;20052;-84
2023/12/25 08:37:29;;;;;;;1999.90;999.90;;;7.00;61.10;;;;;;5045929;28;20079;-85
2023/12/25 08:39:55;;;;;;;1999.90;999.90;;;7.10;59.70;;;;;;5044941;28;20603;-83
2023/12/25 08:42:20;;;;;;;1999.90;999.90;;;7.20;60.30;;;;;;5045604;28;20028;-81
2023/12/25 08:44:47;;;;;;;1999.90;999.90;;;7.20;60.00;;;;;;5028611;28;20048;-80
2023/12/25 08:47:14;;;;;;;1999.90;999.90;;;7.40;58.90;;;;;;5042373;28;20032;-83
2023/12/25 08:49:40;;;;;;;1999.90;999.90;;;7.50;59.00;;;;;;5028714;28;20057;-81
2023/12/25 08:52:06;;;;;;;1999.90;999.90;;;7.60;58.50;;;;;;5045887;28;20127;-82
2023/12/25 08:54:37;;;;;;;1999.90;999.90;;;7.60;58.60;;;;;;5045955;28;20116;-88
2023/12/25 08:57:04;;;;;;;1999.90;999.90;;;7.60;56.20;;;;;;5046740;28;20035;-87
2023/12/25 08:59:29;;;;;;;1999.90;999.90;;;7.70;56.10;;;;;;5045008;28;20056;-85
2023/12/25 09:01:55;;;;;;;1999.90;999.90;;;7.70;55.00;;;;;;5043805;28;20037;-86
2023/12/25 09:04:21;;;;;;;1999.90;999.90;;;7.90;53.30;;;;;;5045411;28;20518;-88
2023/12/25 09:06:46;;;;;;;1999.90;999.90;;;7.90;52.40;;;;;;5045745;28;20029;-89
2023/12/25 09:09:12;;;;;;;1999.90;999.90;;;8.00;52.70;;;;;;5046514;28;20033;-87
2023/12/25 09:11:38;;;;;;;1999.90;999.90;;;8.10;51.00;;;;;;5044977;28;20067;-83
2023/12/25 09:14:03;;;;;;;1999.90;999.90;;;8.00;52.00;;;;;;5045005;28;20376;-85
2023/12/25 09:16:29;;;;;;;1999.90;999.90;;;8.00;51.80;;;;;;5043668;28;20400;-84
2023/12/25 09:18:55;;;;;;;1999.90;999.90;;;8.00;52.00;;;;;;5044570;28;20087;-83
2023/12/25 09:21:21;;;;;;;1999.90;999.90;;;8.00;51.40;;;;;;5040954;28;20044;-82
2023/12/25 09:23:48;;;;;;;1999.90;999.90;;;8.10;50.80;;;;;;5041257;28;20025;-82
2023/12/25 09:26:20;;;;;;;1999.90;999.90;;;8.10;50.90;;;;;;5044289;28;20029;-83
2023/12/25 09:28:47;;;;;;;1999.90;999.90;;;8.20;49.70;;;;;;5043920;28;20025;-84
2023/12/25 09:31:13;;;;;;;1999.90;999.90;;;8.20;50.30;;;;;;5041494;28;20041;-84
2023/12/25 09:33:39;;;;;;;1999.90;999.90;;;8.20;50.40;;;;;;5044340;28;20135;-82
2023/12/25 09:36:06;;;;;;;1999.90;999.90;;;8.30;50.40;;;;;;5027274;28;20470;-85
2023/12/25 09:38:33;;;;;;;1999.90;999.90;;;8.30;47.80;;;;;;5045754;28;20170;-88
2023/12/25 09:41:00;;;;;;;1999.90;999.90;;;8.30;48.50;;;;;;5044836;28;20036;-83
2023/12/25 09:43:27;;;;;;;1999.90;999.90;;;8.40;49.10;;;;;;5046168;28;20033;-84
2023/12/25 09:45:54;;;;;;;1999.90;999.90;;;8.50;47.80;;;;;;5044275;28;20017;-85
2023/12/25 09:48:20;;;;;;;1999.90;999.90;;;8.60;49.40;;;;;;5046183;28;20054;-87
2023/12/25 09:50:45;;;;;;;1999.90;999.90;;;8.70;46.40;;;;;;5043418;28;20133;-79
2023/12/25 09:53:11;;;;;;;1999.90;999.90;;;8.80;48.10;;;;;;5042525;28;20033;-85
2023/12/25 09:55:37;;;;;;;1999.90;999.90;;;8.90;46.40;;;;;;5041586;28;20418;-83
2023/12/25 09:58:10;;;;;;;1999.90;999.90;;;8.90;46.00;;;;;;5044150;28;20032;-86
2023/12/25 10:00:37;;;;;;;1999.90;999.90;;;8.80;44.80;;;;;;5040281;28;20040;-77
2023/12/25 10:03:03;;;;;;;1999.90;999.90;;;8.80;45.70;;;;;;5041891;28;20033;-80
2023/12/25 10:05:29;;;;;;;1999.90;999.90;;;8.80;46.20;;;;;;5038129;28;20075;-84
2023/12/25 10:07:55;;;;;;;1999.90;999.90;;;8.80;47.10;;;;;;5043083;28;20025;-84
2023/12/25 10:10:31;;;;;;;1999.90;999.90;;;8.70;47.10;;;;;;5041317;28;20646;-78
2023/12/25 10:13:00;;;;;;;1999.90;999.90;;;8.60;48.70;;;;;;5056609;28;20156;-76
2023/12/25 10:15:25;;;;;;;1999.90;999.90;;;8.60;48.70;;;;;;5041303;28;20033;-75
2023/12/25 10:18:05;;;;;;;1999.90;999.90;;;8.60;48.70;;;;;;5041370;28;20091;-78
2023/12/25 10:20:31;;;;;;;1999.90;999.90;;;8.50;49.60;;;;;;5043280;28;20044;-78
2023/12/25 10:22:57;;;;;;;1999.90;999.90;;;8.60;50.00;;;;;;5047378;28;20033;-80
2023/12/25 10:25:30;;;;;;;1999.90;999.90;;;8.70;48.80;;;;;;5047727;28;20025;-78
2023/12/25 10:28:09;;;;;;;1999.90;999.90;;;8.80;49.20;;;;;;5047221;28;20036;-78
2023/12/25 10:30:34;;;;;;;1999.90;999.90;;;8.90;48.30;;;;;;5042155;28;20083;-78
2023/12/25 10:33:14;;;;;;;1999.90;999.90;;;9.00;48.60;;;;;;5048071;28;20037;-78
2023/12/25 10:35:40;;;;;;;1999.90;999.90;;;9.00;48.20;;;;;;5043459;28;20039;-80
2023/12/25 10:38:07;;;;;;;1999.90;999.90;;;9.20;48.50;;;;;;5047927;28;20052;-78
2023/12/25 10:40:34;;;;;;;1999.90;999.90;;;9.30;48.50;;;;;;5048731;28;20103;-78
2023/12/25 10:42:59;;;;;;;1999.90;999.90;;;9.20;48.50;;;;;;5050049;28;20039;-79
2023/12/25 10:45:27;;;;;;;1999.90;999.90;;;9.10;46.60;;;;;;5047767;28;20021;-79
2023/12/25 10:47:55;;;;;;;1999.90;999.90;;;9.10;47.70;;;;;;5049629;28;20024;-78
2023/12/25 10:50:24;;;;;;;1999.90;999.90;;;9.10;46.90;;;;;;5049339;28;20059;-78
2023/12/25 10:52:51;;;;;;;1999.90;999.90;;;9.30;46.40;;;;;;5048605;28;20410;-78
2023/12/25 10:55:37;;;;;;;1999.90;999.90;;;9.30;46.30;;;;;;5048713;28;20032;-78
2023/12/25 10:58:11;;;;;;;1999.90;999.90;;;9.40;47.10;;;;;;5043791;28;20061;-77
2023/12/25 11:00:49;;;;;;;1999.90;999.90;;;9.50;44.50;;;;;;5047711;28;20122;-77
2023/12/25 11:03:15;;;;;;;1999.90;999.90;;;9.60;44.70;;;;;;5048203;28;20032;-77
2023/12/25 11:05:41;;;;;;;1999.90;999.90;;;9.70;45.50;;;;;;5048924;28;20021;-78
2023/12/25 11:08:08;;;;;;;1999.90;999.90;;;9.70;45.60;;;;;;5045719;28;20028;-77
2023/12/25 11:10:35;;;;;;;1999.90;999.90;;;9.80;44.30;;;;;;5044849;28;20186;-78
2023/12/25 11:13:02;;;;;;;1999.90;999.90;;;9.90;44.90;;;;;;5048186;28;20049;-77
2023/12/25 11:15:27;;;;;;;1999.90;999.90;;;9.80;45.30;;;;;;5063626;28;20037;-77
2023/12/25 11:17:54;;;;;;;1999.90;999.90;;;9.80;44.60;;;;;;5045613;28;20033;-78
2023/12/25 11:20:22;;;;;;;1999.90;999.90;;;9.80;44.20;;;;;;5048080;28;20074;-77
2023/12/25 11:22:48;;;;;;;1999.90;999.90;;;9.80;44.60;;;;;;5044854;28;20036;-77
2023/12/25 11:25:19;;;;;;;1999.90;999.90;;;9.70;44.70;;;;;;5049250;28;20021;-79
2023/12/25 11:27:53;;;;;;;1999.90;999.90;;;9.70;45.50;;;;;;5031875;28;20060;-77
2023/12/25 11:30:21;;;;;;;1999.90;999.90;;;9.80;44.20;;;;;;5045931;28;20075;-77
2023/12/25 11:32:49;;;;;;;1999.90;999.90;;;9.80;46.50;;;;;;5048340;28;20082;-78
2023/12/25 11:35:23;;;;;;;1999.90;999.90;;;9.90;45.70;;;;;;5047513;28;20036;-77
2023/12/25 11:37:49;;;;;;;1999.90;999.90;;;9.80;44.20;;;;;;5046251;28;20094;-77
2023/12/25 11:40:15;;;;;;;1999.90;999.90;;;9.80;44.70;;;;;;5042171;28;20029;-77
2023/12/25 11:42:41;;;;;;;1999.90;999.90;;;9.80;45.90;;;;;;5047792;28;20441;-78
2023/12/25 11:45:09;;;;;;;1999.90;999.90;;;9.90;46.10;;;;;;5048845;28;20029;-77
2023/12/25 11:47:55;;;;;;;1999.90;999.90;;;10.00;46.60;;;;;;5047036;28;20018;-78
2023/12/25 11:50:21;;;;;;;1999.90;999.90;;;10.00;46.30;;;;;;5046780;28;20075;-77
2023/12/25 11:52:53;;;;;;;1999.90;999.90;;;10.20;47.30;;;;;;5046671;28;20651;-77
2023/12/25 11:55:25;;;;;;;1999.90;999.90;;;10.10;47.00;;;;;;5047654;28;20060;-78
2023/12/25 11:57:51;;;;;;;1999.90;999.90;;;10.10;47.40;;;;;;5046235;28;20111;-77
2023/12/25 12:00:26;;;;;;;1999.90;999.90;;;10.20;49.50;;;;;;5046729;28;20170;-77
2023/12/25 12:02:52;;;;;;;1999.90;999.90;;;10.10;48.70;;;;;;5048239;28;20090;-76
2023/12/25 12:05:18;;;;;;;1999.90;999.90;;;10.00;48.70;;;;;;5048141;28;20045;-78
2023/12/25 12:07:45;;;;;;;1999.90;999.90;;;9.90;48.60;;;;;;5046980;28;20418;-78